Time;durP1;ratioP1;P1;durP2;ratioP2;P2;SDS_P1;SDS_P2;PMS_P1;PMS_P2;Temp;Humidity;BMP_temperature;BMP_pressure;BME280_temperature;BME280_humidity;BME280_pressure;Samples;Min_cycle;Max_cycle;Signal;HPM_P1;HPM_P2
2023/04/17 00:00:37;;;;;;;;;;;18.60;65.60;;;;;;4977209;28;936;-73
2023/04/17 00:03:02;;;;;;;;;;;18.60;65.70;;;;;;4977760;28;858;-73
2023/04/17 00:05:30;;;;;;;;;;;18.60;65.70;;;;;;4977640;28;810;-72
2023/04/17 00:07:59;;;;;;;;;;;18.60;65.60;;;;;;4976048;28;837;-72
2023/04/17 00:10:24;;;;;;;;;;;18.60;65.70;;;;;;4977141;28;817;-72
2023/04/17 00:12:50;;;;;;;;;;;18.60;65.70;;;;;;4977336;28;892;-73
2023/04/17 00:15:15;;;;;;;;;;;18.60;65.70;;;;;;4977385;28;840;-72
2023/04/17 00:17:40;;;;;;;;;;;18.60;65.70;;;;;;4976962;28;1899;-73
2023/04/17 00:20:09;;;;;;;;;;;18.60;65.70;;;;;;4977536;28;1322;-72
2023/04/17 00:22:34;;;;;;;;;;;18.60;65.70;;;;;;4977030;28;844;-72
2023/04/17 00:25:00;;;;;;;;;;;18.60;65.70;;;;;;4962225;28;1161;-72
2023/04/17 00:27:25;;;;;;;;;;;18.60;65.80;;;;;;4977073;28;1007;-72
2023/04/17 00:29:51;;;;;;;;;;;18.60;65.80;;;;;;4976970;28;1328;-72
2023/04/17 00:32:16;;;;;;;;;;;18.60;65.80;;;;;;4977118;28;804;-72
2023/04/17 00:34:42;;;;;;;;;;;18.60;65.80;;;;;;4975066;28;1305;-72
2023/04/17 00:37:07;;;;;;;;;;;18.60;65.80;;;;;;4962017;28;1358;-72
2023/04/17 00:39:32;;;;;;;;;;;18.60;65.80;;;;;;4974858;28;1907;-72
2023/04/17 00:41:58;;;;;;;;;;;18.50;65.80;;;;;;4975403;28;842;-73
2023/04/17 00:44:23;;;;;;;;;;;18.60;65.80;;;;;;4974272;28;985;-72
2023/04/17 00:46:49;;;;;;;;;;;18.50;65.80;;;;;;4974012;28;853;-72
2023/04/17 00:49:14;;;;;;;;;;;18.50;65.80;;;;;;4972555;28;1264;-72
2023/04/17 00:51:40;;;;;;;;;;;18.50;65.80;;;;;;4973053;28;897;-72
2023/04/17 00:54:06;;;;;;;;;;;18.50;65.80;;;;;;4974038;28;857;-73
2023/04/17 00:56:31;;;;;;;;;;;18.50;65.90;;;;;;4974029;28;897;-73
2023/04/17 00:58:57;;;;;;;;;;;18.50;65.80;;;;;;4972297;28;1930;-73
2023/04/17 01:01:22;;;;;;;;;;;18.50;65.90;;;;;;4973093;28;1045;-73
2023/04/17 01:03:48;;;;;;;;;;;18.50;65.80;;;;;;4973789;28;828;-73
2023/04/17 01:06:14;;;;;;;;;;;18.50;65.90;;;;;;4956205;28;1169;-72
2023/04/17 01:08:40;;;;;;;;;;;18.50;65.90;;;;;;4972065;28;1382;-73
2023/04/17 01:11:06;;;;;;;;;;;18.50;65.90;;;;;;4973986;28;814;-73
2023/04/17 01:13:31;;;;;;;;;;;18.50;65.90;;;;;;4973636;28;1405;-73
2023/04/17 01:15:57;;;;;;;;;;;18.50;66.00;;;;;;4974017;28;942;-73
2023/04/17 01:18:22;;;;;;;;;;;18.50;65.90;;;;;;4973197;28;1895;-73
2023/04/17 01:20:48;;;;;;;;;;;18.50;65.90;;;;;;4972454;28;821;-73
2023/04/17 01:23:13;;;;;;;;;;;18.50;66.00;;;;;;4973691;28;942;-73
2023/04/17 01:25:39;;;;;;;;;;;18.50;66.00;;;;;;4972340;28;1019;-73
2023/04/17 01:28:04;;;;;;;;;;;18.50;66.00;;;;;;4973340;28;1261;-73
2023/04/17 01:30:30;;;;;;;;;;;18.50;66.00;;;;;;4973338;28;895;-73
2023/04/17 01:32:55;;;;;;;;;;;18.50;66.00;;;;;;4973637;28;813;-73
2023/04/17 01:35:21;;;;;;;;;;;18.50;66.00;;;;;;4972680;28;1277;-73
2023/04/17 01:37:46;;;;;;;;;;;18.40;65.90;;;;;;4971766;28;1906;-73
2023/04/17 01:40:12;;;;;;;;;;;18.40;65.90;;;;;;4971933;28;1291;-72
2023/04/17 01:42:37;;;;;;;;;;;18.40;66.00;;;;;;4973436;28;843;-72
2023/04/17 01:45:03;;;;;;;;;;;18.40;66.00;;;;;;4972122;28;814;-72
2023/04/17 01:47:29;;;;;;;;;;;18.40;66.70;;;;;;4971848;28;810;-73
2023/04/17 01:49:54;;;;;;;;;;;18.50;66.10;;;;;;4973386;28;1257;-73
2023/04/17 01:52:20;;;;;;;;;;;18.40;66.00;;;;;;4973391;28;826;-72
2023/04/17 01:54:45;;;;;;;;;;;18.50;66.10;;;;;;4973270;28;1267;-73
2023/04/17 01:57:11;;;;;;;;;;;18.40;66.00;;;;;;4972826;28;896;-73
2023/04/17 01:59:36;;;;;;;;;;;18.40;66.00;;;;;;4971871;28;1887;-73
2023/04/17 02:02:02;;;;;;;;;;;18.40;66.00;;;;;;4973343;28;792;-73
2023/04/17 02:04:27;;;;;;;;;;;18.40;66.00;;;;;;4971057;28;1355;-72
2023/04/17 02:06:53;;;;;;;;;;;18.40;66.00;;;;;;4972256;28;1277;-74
2023/04/17 02:09:18;;;;;;;;;;;18.40;66.00;;;;;;4972326;28;1424;-73
2023/04/17 02:11:44;;;;;;;;;;;18.40;66.10;;;;;;4971258;28;1424;-73
2023/04/17 02:14:09;;;;;;;;;;;18.40;66.10;;;;;;4972228;28;1493;-74
2023/04/17 02:16:36;;;;;;;;;;;18.40;66.10;;;;;;4984983;28;1442;-76
2023/04/17 02:19:01;;;;;;;;;;;18.40;66.10;;;;;;4972800;28;1903;-75
2023/04/17 02:21:27;;;;;;;;;;;18.40;66.10;;;;;;4973606;28;1179;-72
2023/04/17 02:23:52;;;;;;;;;;;18.40;66.10;;;;;;4970206;28;1195;-72
2023/04/17 02:26:18;;;;;;;;;;;18.40;66.10;;;;;;4971619;28;968;-72
2023/04/17 02:28:44;;;;;;;;;;;18.40;66.10;;;;;;4955668;28;1229;-72
2023/04/17 02:31:10;;;;;;;;;;;18.40;66.10;;;;;;4971750;28;1217;-71
2023/04/17 02:33:35;;;;;;;;;;;18.40;66.20;;;;;;4971025;28;1358;-72
2023/04/17 02:36:01;;;;;;;;;;;18.40;66.10;;;;;;4972578;28;1337;-72
2023/04/17 02:38:28;;;;;;;;;;;18.40;66.20;;;;;;4971876;28;1976;-72
2023/04/17 02:40:54;;;;;;;;;;;18.40;66.20;;;;;;4972477;28;888;-72
2023/04/17 02:43:20;;;;;;;;;;;18.40;66.20;;;;;;4971024;28;804;-72
2023/04/17 02:45:45;;;;;;;;;;;18.40;66.20;;;;;;4986699;28;836;-72
2023/04/17 02:48:11;;;;;;;;;;;18.40;66.20;;;;;;4972037;28;1257;-72
2023/04/17 02:50:36;;;;;;;;;;;18.40;66.20;;;;;;4979389;28;887;-71
2023/04/17 02:53:02;;;;;;;;;;;18.40;66.20;;;;;;4970729;28;1616;-71
2023/04/17 02:55:27;;;;;;;;;;;18.40;66.20;;;;;;4971835;28;887;-71
2023/04/17 02:57:52;;;;;;;;;;;18.30;66.20;;;;;;4969865;28;2001;-71
2023/04/17 03:00:19;;;;;;;;;;;18.40;66.20;;;;;;4971971;28;1144;-71
2023/04/17 03:02:45;;;;;;;;;;;18.30;66.90;;;;;;4971892;28;880;-71
2023/04/17 03:05:13;;;;;;;;;;;18.30;66.20;;;;;;4972033;28;856;-72
2023/04/17 03:07:39;;;;;;;;;;;18.40;66.30;;;;;;4971130;28;903;-72
2023/04/17 03:10:05;;;;;;;;;;;18.30;66.20;;;;;;4970357;28;1350;-72
2023/04/17 03:12:30;;;;;;;;;;;18.30;66.20;;;;;;4970211;28;908;-72
2023/04/17 03:14:56;;;;;;;;;;;18.40;66.30;;;;;;4971658;28;896;-72
2023/04/17 03:17:21;;;;;;;;;;;18.30;66.20;;;;;;4971341;28;1969;-73
2023/04/17 03:19:46;;;;;;;;;;;18.30;66.20;;;;;;4971886;28;1206;-70
2023/04/17 03:22:12;;;;;;;;;;;18.30;66.20;;;;;;4971378;28;881;-72
2023/04/17 03:24:37;;;;;;;;;;;18.30;66.30;;;;;;4971467;28;864;-72
2023/04/17 03:27:03;;;;;;;;;;;18.30;66.20;;;;;;4971413;28;1064;-72
2023/04/17 03:29:28;;;;;;;;;;;18.30;66.20;;;;;;4971299;28;1235;-72
2023/04/17 03:31:54;;;;;;;;;;;18.30;66.20;;;;;;4971411;28;808;-72
2023/04/17 03:34:20;;;;;;;;;;;18.30;66.20;;;;;;4971322;28;840;-72
2023/04/17 03:36:46;;;;;;;;;;;18.30;66.20;;;;;;4970188;28;1413;-72
2023/04/17 03:39:11;;;;;;;;;;;18.30;66.30;;;;;;4970878;28;1970;-71
2023/04/17 03:41:37;;;;;;;;;;;18.30;66.30;;;;;;4971534;28;1223;-71
2023/04/17 03:44:03;;;;;;;;;;;18.30;66.20;;;;;;4971279;28;940;-72
2023/04/17 03:46:29;;;;;;;;;;;18.30;66.30;;;;;;4971246;28;921;-72
2023/04/17 03:48:54;;;;;;;;;;;18.30;66.30;;;;;;4971119;28;1341;-73
2023/04/17 03:51:19;;;;;;;;;;;18.30;66.30;;;;;;4971592;28;887;-73
2023/04/17 03:53:45;;;;;;;;;;;18.30;66.30;;;;;;4971006;28;1523;-72
2023/04/17 03:56:10;;;;;;;;;;;18.30;66.30;;;;;;4971579;28;848;-73
2023/04/17 03:58:36;;;;;;;;;;;18.30;66.30;;;;;;4970521;28;1900;-73
2023/04/17 04:01:01;;;;;;;;;;;18.30;66.30;;;;;;4970782;28;805;-73
2023/04/17 04:03:27;;;;;;;;;;;18.30;66.30;;;;;;4970607;28;1136;-73
2023/04/17 04:05:53;;;;;;;;;;;18.30;66.30;;;;;;4969396;28;889;-73
2023/04/17 04:08:18;;;;;;;;;;;18.30;66.20;;;;;;4968792;28;1228;-73
2023/04/17 04:10:44;;;;;;;;;;;18.30;66.10;;;;;;4974681;28;830;-73
2023/04/17 04:13:10;;;;;;;;;;;18.40;66.10;;;;;;4973807;28;863;-71
2023/04/17 04:15:35;;;;;;;;;;;18.50;66.10;;;;;;4975593;28;836;-72
2023/04/17 04:18:00;;;;;;;;;;;18.60;65.90;;;;;;4976555;28;1907;-73
2023/04/17 04:20:26;;;;;;;;;;;18.70;65.60;;;;;;4974603;28;939;-72
2023/04/17 04:22:52;;;;;;;;;;;18.80;65.20;;;;;;4974627;28;860;-73
2023/04/17 04:25:18;;;;;;;;;;;18.90;64.90;;;;;;4974882;28;812;-73
2023/04/17 04:27:48;;;;;;;;;;;19.00;64.40;;;;;;4974264;28;936;-73
2023/04/17 04:30:14;;;;;;;;;;;19.20;64.10;;;;;;4974305;28;1356;-72
2023/04/17 04:32:47;;;;;;;;;;;19.30;63.70;;;;;;4973250;28;1085;-72
2023/04/17 04:35:12;;;;;;;;;;;19.40;63.30;;;;;;4973768;28;1168;-72
2023/04/17 04:37:38;;;;;;;;;;;19.60;63.00;;;;;;4976302;28;1969;-72
2023/04/17 04:40:09;;;;;;;;;;;19.70;62.70;;;;;;4974105;28;1328;-72
2023/04/17 04:42:35;;;;;;;;;;;19.80;62.50;;;;;;4974259;28;1181;-72
2023/04/17 04:45:01;;;;;;;;;;;19.80;62.10;;;;;;4973957;28;800;-72
2023/04/17 04:47:26;;;;;;;;;;;19.90;61.90;;;;;;4973865;28;951;-72
2023/04/17 04:49:52;;;;;;;;;;;20.00;61.70;;;;;;4973777;28;1459;-73
2023/04/17 04:52:17;;;;;;;;;;;20.10;61.50;;;;;;4972273;28;1921;-71
2023/04/17 04:54:42;;;;;;;;;;;20.20;61.30;;;;;;4978666;28;1870;-73
2023/04/17 04:57:08;;;;;;;;;;;20.20;61.10;;;;;;4972591;28;1356;-73
2023/04/17 04:59:33;;;;;;;;;;;20.30;61.00;;;;;;4972932;28;1902;-72
2023/04/17 05:01:59;;;;;;;;;;;20.30;60.80;;;;;;4973192;28;854;-73
2023/04/17 05:04:25;;;;;;;;;;;20.40;60.60;;;;;;4972952;28;808;-71
2023/04/17 05:06:51;;;;;;;;;;;20.40;60.90;;;;;;4972346;28;856;-71
2023/04/17 05:09:16;;;;;;;;;;;20.50;60.30;;;;;;4973073;28;1351;-71
2023/04/17 05:11:42;;;;;;;;;;;20.50;60.20;;;;;;4973498;28;947;-70
2023/04/17 05:14:07;;;;;;;;;;;20.50;60.10;;;;;;4973778;28;864;-70
2023/04/17 05:16:33;;;;;;;;;;;20.60;60.00;;;;;;4973466;28;925;-69
2023/04/17 05:18:58;;;;;;;;;;;20.60;60.00;;;;;;4972866;28;1899;-72
2023/04/17 05:21:24;;;;;;;;;;;20.60;59.90;;;;;;4973287;28;856;-70
2023/04/17 05:23:50;;;;;;;;;;;20.60;59.80;;;;;;4973087;28;825;-70
2023/04/17 05:26:15;;;;;;;;;;;20.60;59.70;;;;;;4971162;28;888;-71
2023/04/17 05:28:41;;;;;;;;;;;20.70;59.70;;;;;;4973184;28;1229;-76
2023/04/17 05:31:06;;;;;;;;;;;20.70;59.70;;;;;;4972814;28;951;-74
2023/04/17 05:33:31;;;;;;;;;;;20.70;59.70;;;;;;4973371;28;916;-74
2023/04/17 05:35:57;;;;;;;;;;;20.70;59.60;;;;;;4974015;28;1447;-74
2023/04/17 05:38:22;;;;;;;;;;;20.70;59.50;;;;;;4972798;28;1891;-74
2023/04/17 05:40:48;;;;;;;;;;;20.80;59.50;;;;;;4973596;28;793;-73
2023/04/17 05:43:13;;;;;;;;;;;20.80;59.50;;;;;;4973694;28;954;-74
2023/04/17 05:45:40;;;;;;;;;;;20.80;59.60;;;;;;4974194;28;1031;-76
2023/04/17 05:48:05;;;;;;;;;;;20.80;59.50;;;;;;4975083;28;1334;-74
2023/04/17 05:50:31;;;;;;;;;;;20.80;59.60;;;;;;4973384;28;840;-75
2023/04/17 05:52:56;;;;;;;;;;;20.80;59.60;;;;;;4972310;28;1194;-74
2023/04/17 05:55:22;;;;;;;;;;;20.80;59.70;;;;;;4972681;28;944;-75
2023/04/17 05:57:47;;;;;;;;;;;20.70;59.70;;;;;;4973102;28;1958;-75
2023/04/17 06:00:13;;;;;;;;;;;20.70;59.80;;;;;;4973514;28;1346;-73
2023/04/17 06:02:39;;;;;;;;;;;20.70;59.80;;;;;;4973976;28;920;-75
2023/04/17 06:05:05;;;;;;;;;;;20.70;59.90;;;;;;4972692;28;891;-75
2023/04/17 06:07:34;;;;;;;;;;;20.70;59.90;;;;;;4973218;28;853;-75
2023/04/17 06:10:00;;;;;;;;;;;20.70;60.00;;;;;;4951078;28;1315;-75
2023/04/17 06:12:25;;;;;;;;;;;20.60;60.00;;;;;;4971758;28;842;-75
2023/04/17 06:14:50;;;;;;;;;;;20.60;60.20;;;;;;4973367;28;825;-75
2023/04/17 06:17:16;;;;;;;;;;;20.60;60.20;;;;;;4973335;28;797;-75
2023/04/17 06:19:41;;;;;;;;;;;20.60;60.20;;;;;;4973772;28;1952;-75
2023/04/17 06:22:07;;;;;;;;;;;20.50;60.20;;;;;;4973775;28;831;-75
2023/04/17 06:24:32;;;;;;;;;;;20.60;60.30;;;;;;4972178;28;863;-75
2023/04/17 06:26:58;;;;;;;;;;;20.60;60.40;;;;;;4973040;28;820;-75
2023/04/17 06:29:23;;;;;;;;;;;20.50;60.40;;;;;;4972628;28;1355;-75
2023/04/17 06:31:49;;;;;;;;;;;20.50;60.40;;;;;;4972602;28;990;-73
2023/04/17 06:34:14;;;;;;;;;;;20.50;60.60;;;;;;4971474;28;979;-75
2023/04/17 06:36:40;;;;;;;;;;;20.40;60.50;;;;;;4973940;28;1424;-74
2023/04/17 06:39:05;;;;;;;;;;;20.40;60.60;;;;;;4973746;28;1969;-75
2023/04/17 06:41:31;;;;;;;;;;;20.40;60.70;;;;;;4974147;28;861;-75
2023/04/17 06:43:56;;;;;;;;;;;20.40;60.80;;;;;;4974190;28;796;-75
2023/04/17 06:46:21;;;;;;;;;;;20.40;60.90;;;;;;4974051;28;931;-75
2023/04/17 06:48:50;;;;;;;;;;;20.30;60.80;;;;;;4972522;28;1313;-75
2023/04/17 06:51:19;;;;;;;;;;;20.30;60.90;;;;;;4973435;28;896;-75
2023/04/17 06:53:45;;;;;;;;;;;20.30;61.00;;;;;;4961776;28;1357;-74
2023/04/17 06:56:10;;;;;;;;;;;20.20;61.70;;;;;;4973705;28;876;-74
2023/04/17 06:58:42;;;;;;;;;;;20.20;61.10;;;;;;4973471;28;1985;-75
2023/04/17 07:01:11;;;;;;;;;;;20.20;61.20;;;;;;4973096;28;828;-75
2023/04/17 07:03:40;;;;;;;;;;;20.20;61.30;;;;;;4971078;28;896;-76
2023/04/17 07:06:06;;;;;;;;;;;20.20;61.30;;;;;;4969127;28;892;-77
2023/04/17 07:08:31;;;;;;;;;;;20.10;61.40;;;;;;4973726;28;1285;-77
2023/04/17 07:10:57;;;;;;;;;;;20.10;61.50;;;;;;4972327;28;901;-77
2023/04/17 07:13:22;;;;;;;;;;;20.10;61.60;;;;;;4972515;28;888;-76
2023/04/17 07:15:54;;;;;;;;;;;20.10;61.70;;;;;;4972201;28;857;-77
2023/04/17 07:18:20;;;;;;;;;;;20.00;61.70;;;;;;4958853;28;1948;-78
2023/04/17 07:20:46;;;;;;;;;;;20.00;61.80;;;;;;4975783;28;822;-78
2023/04/17 07:23:11;;;;;;;;;;;20.00;61.90;;;;;;4975616;28;785;-78
2023/04/17 07:25:37;;;;;;;;;;;20.00;62.00;;;;;;4974385;28;1070;-76
2023/04/17 07:28:02;;;;;;;;;;;19.90;62.10;;;;;;4973323;28;1332;-76
2023/04/17 07:30:28;;;;;;;;;;;19.90;62.20;;;;;;4973255;28;881;-77
2023/04/17 07:32:53;;;;;;;;;;;19.90;62.20;;;;;;4972026;28;871;-76
2023/04/17 07:35:19;;;;;;;;;;;19.90;62.30;;;;;;4955491;28;1264;-76
2023/04/17 07:37:44;;;;;;;;;;;19.80;62.40;;;;;;4972115;28;1906;-76
2023/04/17 07:40:10;;;;;;;;;;;19.80;62.40;;;;;;4985683;28;1253;-77
2023/04/17 07:42:36;;;;;;;;;;;19.80;62.50;;;;;;4971957;28;875;-76
2023/04/17 07:45:02;;;;;;;;;;;19.80;62.60;;;;;;4976447;28;793;-76
2023/04/17 07:47:27;;;;;;;;;;;19.80;62.60;;;;;;4978272;28;832;-76
2023/04/17 07:49:53;;;;;;;;;;;19.70;62.60;;;;;;4976351;28;1232;-73
2023/04/17 07:52:18;;;;;;;;;;;19.70;62.70;;;;;;4975850;28;852;-74
2023/04/17 07:54:44;;;;;;;;;;;19.70;62.70;;;;;;4977785;28;884;-74
2023/04/17 07:57:10;;;;;;;;;;;19.70;62.80;;;;;;4975224;28;842;-74
2023/04/17 07:59:35;;;;;;;;;;;19.70;62.80;;;;;;4973705;28;1964;-75
2023/04/17 08:02:01;;;;;;;;;;;19.70;62.90;;;;;;4975003;28;820;-75
2023/04/17 08:04:27;;;;;;;;;;;19.70;62.90;;;;;;4973739;28;864;-73
2023/04/17 08:06:52;;;;;;;;;;;19.70;63.00;;;;;;4973408;28;1503;-73
2023/04/17 08:09:19;;;;;;;;;;;19.70;63.10;;;;;;4972661;28;1261;-71
2023/04/17 08:11:44;;;;;;;;;;;19.60;63.00;;;;;;4973563;28;946;-72
2023/04/17 08:14:10;;;;;;;;;;;19.60;63.10;;;;;;4974408;28;1014;-72
2023/04/17 08:16:36;;;;;;;;;;;19.60;63.10;;;;;;4974700;28;926;-72
2023/04/17 08:19:01;;;;;;;;;;;19.60;63.10;;;;;;4972980;28;1898;-72
2023/04/17 08:21:27;;;;;;;;;;;19.60;63.10;;;;;;4974697;28;955;-73
2023/04/17 08:23:52;;;;;;;;;;;19.60;63.20;;;;;;4974609;28;982;-71
2023/04/17 08:26:19;;;;;;;;;;;19.60;63.20;;;;;;4974541;28;1058;-72
2023/04/17 08:28:45;;;;;;;;;;;19.50;63.20;;;;;;4973656;28;1264;-75
2023/04/17 08:31:10;;;;;;;;;;;19.60;63.20;;;;;;4988329;28;1146;-76
2023/04/17 08:33:36;;;;;;;;;;;19.60;63.20;;;;;;4975852;28;811;-76
2023/04/17 08:36:01;;;;;;;;;;;19.60;63.20;;;;;;4975671;28;985;-76
2023/04/17 08:38:28;;;;;;;;;;;19.60;63.30;;;;;;4973682;28;1973;-75
2023/04/17 08:40:54;;;;;;;;;;;19.60;63.20;;;;;;4973584;28;1902;-75
2023/04/17 08:43:20;;;;;;;;;;;19.50;63.20;;;;;;4972060;28;1974;-74
2023/04/17 08:45:52;;;;;;;;;;;19.50;63.20;;;;;;4972862;28;1496;-73
2023/04/17 08:48:18;;;;;;;;;;;19.60;63.20;;;;;;4972824;28;1452;-75
2023/04/17 08:50:46;;;;;;;;;;;19.50;63.20;;;;;;4974282;28;885;-75
2023/04/17 08:53:11;;;;;;;;;;;19.50;63.20;;;;;;4972264;28;857;-75
2023/04/17 08:55:37;;;;;;;;;;;19.60;64.00;;;;;;4973168;28;880;-74
2023/04/17 08:58:02;;;;;;;;;;;19.60;63.20;;;;;;4973046;28;1902;-72
2023/04/17 09:00:29;;;;;;;;;;;19.60;63.20;;;;;;4972266;28;1259;-74
2023/04/17 09:02:55;;;;;;;;;;;19.50;63.10;;;;;;4970419;28;1358;-73
2023/04/17 09:05:21;;;;;;;;;;;19.50;63.10;;;;;;4973498;28;858;-73
2023/04/17 09:07:48;;;;;;;;;;;19.60;63.10;;;;;;4971376;28;864;-73
2023/04/17 09:10:13;;;;;;;;;;;19.60;63.20;;;;;;4973494;28;1387;-74
2023/04/17 09:12:40;;;;;;;;;;;19.50;63.10;;;;;;4973044;28;1348;-74
2023/04/17 09:15:15;;;;;;;;;;;19.50;63.10;;;;;;4973122;28;852;-74
2023/04/17 09:17:40;;;;;;;;;;;19.50;63.20;;;;;;4971123;28;1961;-74
2023/04/17 09:20:07;;;;;;;;;;;19.50;63.20;;;;;;4973154;28;1271;-74
2023/04/17 09:22:33;;;;;;;;;;;19.50;63.20;;;;;;4972217;28;1855;-74
2023/04/17 09:24:59;;;;;;;;;;;19.50;63.30;;;;;;4973529;28;1970;-75
2023/04/17 09:27:25;;;;;;;;;;;19.50;63.30;;;;;;4972895;28;1144;-75
2023/04/17 09:29:54;;;;;;;;;;;19.50;63.40;;;;;;4973360;28;1378;-74
2023/04/17 09:32:20;;;;;;;;;;;19.40;63.30;;;;;;4973320;28;881;-74
2023/04/17 09:34:46;;;;;;;;;;;19.40;63.40;;;;;;4974979;28;1236;-76
2023/04/17 09:37:11;;;;;;;;;;;19.40;63.40;;;;;;4973660;28;1473;-73
2023/04/17 09:39:39;;;;;;;;;;;19.40;63.40;;;;;;4973377;28;1903;-77
2023/04/17 09:42:09;;;;;;;;;;;19.40;63.50;;;;;;4975068;28;1260;-72
2023/04/17 09:44:36;;;;;;;;;;;19.40;63.60;;;;;;4974436;28;1509;-72
2023/04/17 09:47:03;;;;;;;;;;;19.40;63.60;;;;;;4972883;28;858;-72
2023/04/17 09:49:32;;;;;;;;;;;19.40;63.60;;;;;;4973632;28;1261;-75
2023/04/17 09:51:58;;;;;;;;;;;19.30;63.60;;;;;;4956421;28;1301;-74
2023/04/17 09:54:23;;;;;;;;;;;19.30;63.70;;;;;;4973119;28;892;-73
2023/04/17 09:56:49;;;;;;;;;;;19.40;63.80;;;;;;4972808;28;1062;-73
2023/04/17 09:59:14;;;;;;;;;;;19.30;63.80;;;;;;4971186;28;1907;-75
2023/04/17 10:01:41;;;;;;;;;;;19.30;63.80;;;;;;4973759;28;892;-74
2023/04/17 10:04:06;;;;;;;;;;;19.30;63.80;;;;;;4972162;28;1435;-73
2023/04/17 10:06:32;;;;;;;;;;;19.30;63.90;;;;;;4972171;28;983;-73
2023/04/17 10:08:58;;;;;;;;;;;19.20;63.90;;;;;;4967874;28;1297;-73
2023/04/17 10:11:23;;;;;;;;;;;19.20;64.00;;;;;;4972365;28;1396;-73
2023/04/17 10:13:51;;;;;;;;;;;19.20;64.00;;;;;;4969378;28;1319;-74
2023/04/17 10:16:17;;;;;;;;;;;19.30;64.10;;;;;;4969725;28;1356;-73
2023/04/17 10:18:42;;;;;;;;;;;19.20;64.10;;;;;;4971565;28;1911;-73
2023/04/17 10:21:21;;;;;;;;;;;19.20;64.10;;;;;;4970642;28;1500;-74
2023/04/17 10:23:47;;;;;;;;;;;19.20;64.10;;;;;;4970331;28;1435;-74
2023/04/17 10:26:23;;;;;;;;;;;19.20;64.20;;;;;;4971038;28;1428;-75
2023/04/17 10:28:49;;;;;;;;;;;19.20;64.30;;;;;;4971271;28;1384;-74
2023/04/17 10:31:15;;;;;;;;;;;19.10;64.30;;;;;;4971355;28;2008;-74
2023/04/17 10:33:46;;;;;;;;;;;19.10;64.30;;;;;;4971555;28;1412;-74
2023/04/17 10:36:24;;;;;;;;;;;19.10;64.40;;;;;;4967491;28;1472;-72
2023/04/17 10:38:50;;;;;;;;;;;19.10;64.40;;;;;;4970132;28;2006;-71
2023/04/17 10:41:15;;;;;;;;;;;19.10;64.40;;;;;;4971939;28;904;-71
2023/04/17 10:43:42;;;;;;;;;;;19.10;64.40;;;;;;4972281;28;1023;-71
2023/04/17 10:46:11;;;;;;;;;;;19.10;64.50;;;;;;4971270;28;1274;-74
2023/04/17 10:48:37;;;;;;;;;;;19.10;64.50;;;;;;4971808;28;1280;-75
2023/04/17 10:51:26;;;;;;;;;;;19.10;64.50;;;;;;4972065;28;1041;-75
2023/04/17 10:53:54;;;;;;;;;;;19.00;64.40;;;;;;4965827;28;1138;-75
2023/04/17 10:56:23;;;;;;;;;;;19.00;64.40;;;;;;4970829;28;846;-75
2023/04/17 10:59:05;;;;;;;;;;;19.00;64.50;;;;;;4970928;28;1965;-75
2023/04/17 11:01:31;;;;;;;;;;;19.00;64.40;;;;;;4971442;28;1074;-75
2023/04/17 11:03:58;;;;;;;;;;;19.00;64.50;;;;;;4953613;28;1174;-75
2023/04/17 11:06:30;;;;;;;;;;;19.00;64.50;;;;;;4971897;28;899;-75
2023/04/17 11:08:58;;;;;;;;;;;19.00;64.50;;;;;;4941317;28;1285;-75
2023/04/17 11:11:24;;;;;;;;;;;18.90;64.40;;;;;;4972441;28;943;-75
2023/04/17 11:13:50;;;;;;;;;;;18.90;64.40;;;;;;4957472;28;1298;-75
2023/04/17 11:16:15;;;;;;;;;;;18.90;64.50;;;;;;4970646;28;813;-75
2023/04/17 11:18:44;;;;;;;;;;;18.90;64.50;;;;;;4972030;28;1902;-75
2023/04/17 11:21:13;;;;;;;;;;;18.90;64.50;;;;;;4972827;28;816;-75
2023/04/17 11:23:38;;;;;;;;;;;18.90;64.50;;;;;;4972508;28;865;-75
2023/04/17 11:26:07;;;;;;;;;;;18.90;64.60;;;;;;4973948;28;856;-75
2023/04/17 11:28:35;;;;;;;;;;;18.90;64.70;;;;;;4973927;28;1343;-75
2023/04/17 11:31:01;;;;;;;;;;;18.90;64.70;;;;;;4958440;28;1189;-75
2023/04/17 11:33:27;;;;;;;;;;;18.90;64.70;;;;;;4973662;28;916;-75
2023/04/17 11:35:52;;;;;;;;;;;18.80;64.70;;;;;;4972545;28;888;-76
2023/04/17 11:38:19;;;;;;;;;;;18.80;64.70;;;;;;4973479;28;1915;-75
2023/04/17 11:40:49;;;;;;;;;;;18.90;64.80;;;;;;4971400;28;895;-73
2023/04/17 11:43:15;;;;;;;;;;;18.90;64.80;;;;;;4969975;28;887;-72
2023/04/17 11:45:41;;;;;;;;;;;18.80;64.70;;;;;;4970220;28;818;-73
2023/04/17 11:48:10;;;;;;;;;;;18.80;64.80;;;;;;4981780;28;1275;-73
2023/04/17 11:50:36;;;;;;;;;;;18.80;64.80;;;;;;4970302;28;924;-73
2023/04/17 11:53:02;;;;;;;;;;;18.80;64.90;;;;;;4970134;28;826;-72
2023/04/17 11:55:30;;;;;;;;;;;18.80;64.90;;;;;;4971225;28;962;-72
2023/04/17 11:57:57;;;;;;;;;;;18.80;64.90;;;;;;4970460;28;1907;-72
2023/04/17 12:00:26;;;;;;;;;;;18.80;65.00;;;;;;4971284;28;1233;-72
2023/04/17 12:02:52;;;;;;;;;;;18.80;65.00;;;;;;4970166;28;1519;-72
2023/04/17 12:05:17;;;;;;;;;;;18.80;65.00;;;;;;4969184;28;863;-72
2023/04/17 12:07:43;;;;;;;;;;;18.80;65.00;;;;;;4970819;28;834;-73
2023/04/17 12:10:09;;;;;;;;;;;18.80;65.00;;;;;;4971185;28;1321;-72
2023/04/17 12:12:34;;;;;;;;;;;18.70;65.00;;;;;;4970069;28;809;-72
2023/04/17 12:15:00;;;;;;;;;;;18.70;65.00;;;;;;4969897;28;817;-73
2023/04/17 12:17:25;;;;;;;;;;;18.70;65.00;;;;;;4970944;28;858;-72
2023/04/17 12:19:52;;;;;;;;;;;18.70;65.00;;;;;;4970787;28;1883;-73
2023/04/17 12:22:17;;;;;;;;;;;18.70;65.10;;;;;;4971180;28;844;-72
2023/04/17 12:24:43;;;;;;;;;;;18.70;65.10;;;;;;4970925;28;873;-73
2023/04/17 12:27:08;;;;;;;;;;;18.70;65.10;;;;;;4971606;28;880;-76
2023/04/17 12:29:34;;;;;;;;;;;18.70;65.10;;;;;;4972762;28;1320;-72
2023/04/17 12:31:59;;;;;;;;;;;18.70;65.10;;;;;;4976364;28;855;-75
2023/04/17 12:34:25;;;;;;;;;;;18.70;65.10;;;;;;4976149;28;1277;-76
2023/04/17 12:36:50;;;;;;;;;;;18.70;65.10;;;;;;4975360;28;1023;-76
2023/04/17 12:39:15;;;;;;;;;;;18.70;65.90;;;;;;4975203;28;1907;-76
2023/04/17 12:41:41;;;;;;;;;;;18.70;65.20;;;;;;4972856;28;1161;-75
2023/04/17 12:44:06;;;;;;;;;;;18.70;65.20;;;;;;4974188;28;1043;-76
2023/04/17 12:46:32;;;;;;;;;;;18.60;65.10;;;;;;4974250;28;913;-75
2023/04/17 12:48:58;;;;;;;;;;;18.60;65.10;;;;;;4973677;28;1281;-75
2023/04/17 12:51:26;;;;;;;;;;;18.60;65.30;;;;;;4975326;28;817;-75
2023/04/17 12:53:51;;;;;;;;;;;18.70;65.20;;;;;;4974245;28;876;-75
2023/04/17 12:56:17;;;;;;;;;;;18.60;65.20;;;;;;4975098;28;851;-74
2023/04/17 12:58:42;;;;;;;;;;;18.60;65.30;;;;;;4974204;28;1899;-75
2023/04/17 13:01:08;;;;;;;;;;;18.60;65.30;;;;;;4956151;28;2033;-74
2023/04/17 13:03:34;;;;;;;;;;;18.60;65.30;;;;;;4972802;28;1160;-77
2023/04/17 13:05:59;;;;;;;;;;;18.60;65.40;;;;;;4970492;28;1132;-74
2023/04/17 13:08:24;;;;;;;;;;;18.60;65.40;;;;;;4972743;28;1354;-74
2023/04/17 13:10:50;;;;;;;;;;;18.60;65.40;;;;;;4972113;28;2120;-74
2023/04/17 13:13:15;;;;;;;;;;;18.60;65.40;;;;;;4972176;28;1238;-73
2023/04/17 13:15:41;;;;;;;;;;;18.60;65.40;;;;;;4971248;28;871;-72
2023/04/17 13:18:07;;;;;;;;;;;18.60;65.50;;;;;;4969359;28;1954;-73
2023/04/17 13:20:32;;;;;;;;;;;18.60;65.50;;;;;;4973736;28;1888;-73
2023/04/17 13:22:58;;;;;;;;;;;18.60;65.50;;;;;;4972721;28;2342;-73
2023/04/17 13:25:23;;;;;;;;;;;18.60;65.50;;;;;;4972925;28;1485;-72
2023/04/17 13:27:49;;;;;;;;;;;18.60;65.50;;;;;;4985085;28;2546;-72
2023/04/17 13:30:14;;;;;;;;;;;18.60;65.60;;;;;;4973076;28;1353;-71
2023/04/17 13:32:41;;;;;;;;;;;18.60;65.60;;;;;;4973426;28;822;-71
2023/04/17 13:35:08;;;;;;;;;;;18.60;65.60;;;;;;4974990;28;1295;-71
2023/04/17 13:37:33;;;;;;;;;;;18.50;65.60;;;;;;4972684;28;1118;-72
2023/04/17 13:40:02;;;;;;;;;;;18.50;65.50;;;;;;4971756;28;1914;-72
2023/04/17 13:42:27;;;;;;;;;;;18.50;65.60;;;;;;4971638;28;872;-73
2023/04/17 13:44:53;;;;;;;;;;;18.50;65.50;;;;;;4972662;28;923;-73
2023/04/17 13:47:18;;;;;;;;;;;18.50;65.60;;;;;;4971615;28;895;-73
2023/04/17 13:49:44;;;;;;;;;;;18.50;65.50;;;;;;4971796;28;1364;-74
2023/04/17 13:52:09;;;;;;;;;;;18.50;65.50;;;;;;4974397;28;832;-76
2023/04/17 13:54:35;;;;;;;;;;;18.50;65.50;;;;;;4976512;28;919;-78
2023/04/17 13:57:01;;;;;;;;;;;18.50;65.50;;;;;;4974486;28;789;-77
2023/04/17 13:59:26;;;;;;;;;;;18.50;65.50;;;;;;4973835;28;1911;-77
2023/04/17 14:01:52;;;;;;;;;;;18.50;65.50;;;;;;4973609;28;1348;-77
2023/04/17 14:04:17;;;;;;;;;;;18.50;65.50;;;;;;4972818;28;799;-77
2023/04/17 14:06:45;;;;;;;;;;;18.50;65.40;;;;;;4973300;28;1187;-77
2023/04/17 14:09:11;;;;;;;;;;;18.50;65.40;;;;;;4978730;28;1347;-77
2023/04/17 14:11:37;;;;;;;;;;;18.50;65.40;;;;;;4977295;28;1333;-77
2023/04/17 14:14:02;;;;;;;;;;;18.50;65.30;;;;;;4979760;28;880;-77
2023/04/17 14:16:27;;;;;;;;;;;18.60;65.30;;;;;;4977316;28;874;-77
2023/04/17 14:18:53;;;;;;;;;;;18.60;65.20;;;;;;4974353;28;1963;-77
2023/04/17 14:21:20;;;;;;;;;;;18.60;65.10;;;;;;4972847;28;1828;-77
2023/04/17 14:23:47;;;;;;;;;;;18.60;65.00;;;;;;4956848;28;1397;-77
2023/04/17 14:26:13;;;;;;;;;;;18.60;64.90;;;;;;4976004;28;1085;-77
2023/04/17 14:28:38;;;;;;;;;;;18.60;64.80;;;;;;4972686;28;1308;-77